sensor_id;sensor_type;location;lat;lon;timestamp;temperature;humidity
40374;DHT22;26079;45.958;12.492;2022-10-16T00:01:28;16.70;97.20
40374;DHT22;26079;45.958;12.492;2022-10-16T00:03:55;16.60;97.00
40374;DHT22;26079;45.958;12.492;2022-10-16T00:06:21;16.60;96.90
40374;DHT22;26079;45.958;12.492;2022-10-16T00:08:48;16.50;97.40
40374;DHT22;26079;45.958;12.492;2022-10-16T00:11:21;16.50;97.20
40374;DHT22;26079;45.958;12.492;2022-10-16T00:13:48;16.50;97.10
40374;DHT22;26079;45.958;12.492;2022-10-16T00:16:14;16.50;97.40
40374;DHT22;26079;45.958;12.492;2022-10-16T00:18:40;16.40;96.00
40374;DHT22;26079;45.958;12.492;2022-10-16T00:21:13;16.40;96.00
40374;DHT22;26079;45.958;12.492;2022-10-16T00:23:39;16.40;96.10
40374;DHT22;26079;45.958;12.492;2022-10-16T00:26:08;16.40;96.20
40374;DHT22;26079;45.958;12.492;2022-10-16T00:28:36;16.40;96.00
40374;DHT22;26079;45.958;12.492;2022-10-16T00:31:06;16.40;96.00
40374;DHT22;26079;45.958;12.492;2022-10-16T00:33:34;16.40;96.00
40374;DHT22;26079;45.958;12.492;2022-10-16T00:36:00;16.50;96.10
40374;DHT22;26079;45.958;12.492;2022-10-16T00:40:52;16.50;95.60
40374;DHT22;26079;45.958;12.492;2022-10-16T00:46:02;16.50;95.60
40374;DHT22;26079;45.958;12.492;2022-10-16T00:48:28;16.50;95.90
40374;DHT22;26079;45.958;12.492;2022-10-16T00:50:54;16.40;95.90
40374;DHT22;26079;45.958;12.492;2022-10-16T00:53:21;16.40;95.90
40374;DHT22;26079;45.958;12.492;2022-10-16T00:55:47;16.30;96.40
40374;DHT22;26079;45.958;12.492;2022-10-16T01:00:39;16.30;97.00
40374;DHT22;26079;45.958;12.492;2022-10-16T01:03:32;16.30;97.20
40374;DHT22;26079;45.958;12.492;2022-10-16T01:17:13;16.20;97.40
40374;DHT22;26079;45.958;12.492;2022-10-16T01:22:43;16.30;97.30
40374;DHT22;26079;45.958;12.492;2022-10-16T01:25:21;16.40;97.00
40374;DHT22;26079;45.958;12.492;2022-10-16T01:27:50;16.40;96.50
40374;DHT22;26079;45.958;12.492;2022-10-16T01:30:25;16.40;96.80
40374;DHT22;26079;45.958;12.492;2022-10-16T01:33:10;16.50;96.40
40374;DHT22;26079;45.958;12.492;2022-10-16T01:36:15;16.50;96.90
40374;DHT22;26079;45.958;12.492;2022-10-16T01:38:36;16.40;96.60
40374;DHT22;26079;45.958;12.492;2022-10-16T01:41:20;16.40;96.80
40374;DHT22;26079;45.958;12.492;2022-10-16T01:43:50;16.30;97.60
40374;DHT22;26079;45.958;12.492;2022-10-16T01:46:21;16.30;97.20
40374;DHT22;26079;45.958;12.492;2022-10-16T01:48:48;16.30;97.00
40374;DHT22;26079;45.958;12.492;2022-10-16T01:51:16;16.30;96.90
40374;DHT22;26079;45.958;12.492;2022-10-16T01:53:46;16.30;97.00
40374;DHT22;26079;45.958;12.492;2022-10-16T01:56:15;16.30;97.10
40374;DHT22;26079;45.958;12.492;2022-10-16T01:58:47;16.30;97.30
40374;DHT22;26079;45.958;12.492;2022-10-16T02:01:16;16.30;97.40
40374;DHT22;26079;45.958;12.492;2022-10-16T02:03:44;16.20;97.60
40374;DHT22;26079;45.958;12.492;2022-10-16T02:06:11;16.20;97.60
40374;DHT22;26079;45.958;12.492;2022-10-16T02:08:37;16.10;97.60
40374;DHT22;26079;45.958;12.492;2022-10-16T02:11:05;16.10;98.00
40374;DHT22;26079;45.958;12.492;2022-10-16T02:13:41;16.10;98.50
40374;DHT22;26079;45.958;12.492;2022-10-16T02:16:12;16.10;98.20
40374;DHT22;26079;45.958;12.492;2022-10-16T02:18:38;16.00;98.40
40374;DHT22;26079;45.958;12.492;2022-10-16T02:21:22;16.00;98.70
40374;DHT22;26079;45.958;12.492;2022-10-16T02:24:06;15.90;98.70
40374;DHT22;26079;45.958;12.492;2022-10-16T02:26:42;15.90;98.60
40374;DHT22;26079;45.958;12.492;2022-10-16T02:29:12;15.90;98.70
40374;DHT22;26079;45.958;12.492;2022-10-16T02:31:43;15.90;98.70
40374;DHT22;26079;45.958;12.492;2022-10-16T02:34:11;15.90;98.80
40374;DHT22;26079;45.958;12.492;2022-10-16T02:36:39;15.80;99.00
40374;DHT22;26079;45.958;12.492;2022-10-16T02:39:06;15.80;99.30
40374;DHT22;26079;45.958;12.492;2022-10-16T02:41:33;15.80;99.40
40374;DHT22;26079;45.958;12.492;2022-10-16T02:43:59;15.80;99.50
40374;DHT22;26079;45.958;12.492;2022-10-16T02:53:43;15.80;99.50
40374;DHT22;26079;45.958;12.492;2022-10-16T02:58:35;15.80;99.30
40374;DHT22;26079;45.958;12.492;2022-10-16T03:03:27;15.80;99.40
40374;DHT22;26079;45.958;12.492;2022-10-16T03:10:49;15.80;99.60
40374;DHT22;26079;45.958;12.492;2022-10-16T03:13:15;15.80;99.60
40374;DHT22;26079;45.958;12.492;2022-10-16T03:20:33;15.80;99.90
40374;DHT22;26079;45.958;12.492;2022-10-16T03:25:25;15.70;99.80
40374;DHT22;26079;45.958;12.492;2022-10-16T03:32:44;15.60;99.90
40374;DHT22;26079;45.958;12.492;2022-10-16T03:35:11;15.60;99.90
40374;DHT22;26079;45.958;12.492;2022-10-16T03:37:37;15.60;99.90
40374;DHT22;26079;45.958;12.492;2022-10-16T03:40:03;15.60;99.80
40374;DHT22;26079;45.958;12.492;2022-10-16T03:42:29;15.60;99.90
40374;DHT22;26079;45.958;12.492;2022-10-16T03:44:55;15.60;99.90
40374;DHT22;26079;45.958;12.492;2022-10-16T03:47:21;15.60;99.90
40374;DHT22;26079;45.958;12.492;2022-10-16T03:49:49;15.60;99.90
40374;DHT22;26079;45.958;12.492;2022-10-16T03:52:16;15.60;99.90
40374;DHT22;26079;45.958;12.492;2022-10-16T03:54:42;15.50;99.90
40374;DHT22;26079;45.958;12.492;2022-10-16T03:59:34;15.40;99.90
40374;DHT22;26079;45.958;12.492;2022-10-16T04:04:25;15.30;99.90
40374;DHT22;26079;45.958;12.492;2022-10-16T04:06:51;15.30;99.90
40374;DHT22;26079;45.958;12.492;2022-10-16T04:11:43;15.20;99.90
40374;DHT22;26079;45.958;12.492;2022-10-16T04:16:34;15.10;99.90
40374;DHT22;26079;45.958;12.492;2022-10-16T04:21:26;15.00;99.90
40374;DHT22;26079;45.958;12.492;2022-10-16T04:23:52;15.00;99.90
40374;DHT22;26079;45.958;12.492;2022-10-16T04:33:36;14.80;99.90
40374;DHT22;26079;45.958;12.492;2022-10-16T04:36:03;14.80;99.90
40374;DHT22;26079;45.958;12.492;2022-10-16T04:38:29;14.70;99.90
40374;DHT22;26079;45.958;12.492;2022-10-16T04:40:55;14.60;99.90
40374;DHT22;26079;45.958;12.492;2022-10-16T04:43:21;14.50;99.90
40374;DHT22;26079;45.958;12.492;2022-10-16T04:48:13;14.40;99.90
40374;DHT22;26079;45.958;12.492;2022-10-16T04:53:06;14.40;99.90
40374;DHT22;26079;45.958;12.492;2022-10-16T04:55:32;14.40;99.90
40374;DHT22;26079;45.958;12.492;2022-10-16T05:02:50;14.20;99.90
40374;DHT22;26079;45.958;12.492;2022-10-16T05:05:17;14.10;99.90
40374;DHT22;26079;45.958;12.492;2022-10-16T05:15:03;14.20;99.90
40374;DHT22;26079;45.958;12.492;2022-10-16T05:27:13;14.10;99.90
40374;DHT22;26079;45.958;12.492;2022-10-16T05:29:48;14.10;99.90
40374;DHT22;26079;45.958;12.492;2022-10-16T05:32:16;14.20;99.90
40374;DHT22;26079;45.958;12.492;2022-10-16T05:37:08;14.30;99.90
40374;DHT22;26079;45.958;12.492;2022-10-16T05:39:34;14.30;99.90
40374;DHT22;26079;45.958;12.492;2022-10-16T05:49:18;14.50;99.90
40374;DHT22;26079;45.958;12.492;2022-10-16T05:51:44;14.60;99.90
40374;DHT22;26079;45.958;12.492;2022-10-16T05:56:35;14.70;99.90
40374;DHT22;26079;45.958;12.492;2022-10-16T05:59:03;14.70;99.80
40374;DHT22;26079;45.958;12.492;2022-10-16T06:03:56;14.70;99.90
40374;DHT22;26079;45.958;12.492;2022-10-16T06:06:24;14.70;99.90
40374;DHT22;26079;45.958;12.492;2022-10-16T06:08:52;14.70;99.90
40374;DHT22;26079;45.958;12.492;2022-10-16T06:11:27;14.70;99.90
40374;DHT22;26079;45.958;12.492;2022-10-16T06:13:56;14.70;99.90
40374;DHT22;26079;45.958;12.492;2022-10-16T06:16:23;14.70;99.90
40374;DHT22;26079;45.958;12.492;2022-10-16T06:18:51;14.80;99.90
40374;DHT22;26079;45.958;12.492;2022-10-16T06:21:19;14.80;99.90
40374;DHT22;26079;45.958;12.492;2022-10-16T06:26:13;14.90;99.90
40374;DHT22;26079;45.958;12.492;2022-10-16T06:28:40;14.90;99.90
40374;DHT22;26079;45.958;12.492;2022-10-16T06:31:07;14.90;99.50
40374;DHT22;26079;45.958;12.492;2022-10-16T06:33:33;14.90;99.90
40374;DHT22;26079;45.958;12.492;2022-10-16T06:36:13;15.00;99.90
40374;DHT22;26079;45.958;12.492;2022-10-16T06:38:40;15.00;99.90
40374;DHT22;26079;45.958;12.492;2022-10-16T06:41:07;15.10;99.90
40374;DHT22;26079;45.958;12.492;2022-10-16T06:43:33;15.10;99.90
40374;DHT22;26079;45.958;12.492;2022-10-16T06:46:03;15.10;99.90
40374;DHT22;26079;45.958;12.492;2022-10-16T06:48:29;15.10;99.90
40374;DHT22;26079;45.958;12.492;2022-10-16T06:50:59;15.10;99.70
40374;DHT22;26079;45.958;12.492;2022-10-16T06:53:27;15.10;99.50
40374;DHT22;26079;45.958;12.492;2022-10-16T06:58:19;15.00;99.10
40374;DHT22;26079;45.958;12.492;2022-10-16T07:00:45;14.90;99.60
40374;DHT22;26079;45.958;12.492;2022-10-16T07:03:11;14.80;99.50
40374;DHT22;26079;45.958;12.492;2022-10-16T07:05:41;14.80;99.50
40374;DHT22;26079;45.958;12.492;2022-10-16T07:08:07;14.70;99.90
40374;DHT22;26079;45.958;12.492;2022-10-16T07:10:33;14.70;99.90
40374;DHT22;26079;45.958;12.492;2022-10-16T07:12:59;14.80;99.90
40374;DHT22;26079;45.958;12.492;2022-10-16T07:15:25;14.90;99.90
40374;DHT22;26079;45.958;12.492;2022-10-16T07:17:51;15.00;99.90
40374;DHT22;26079;45.958;12.492;2022-10-16T07:20:17;15.10;99.90
40374;DHT22;26079;45.958;12.492;2022-10-16T07:25:09;15.20;99.90
40374;DHT22;26079;45.958;12.492;2022-10-16T07:30:01;15.20;98.50
40374;DHT22;26079;45.958;12.492;2022-10-16T07:32:27;15.30;98.90
40374;DHT22;26079;45.958;12.492;2022-10-16T07:34:53;15.30;98.20
40374;DHT22;26079;45.958;12.492;2022-10-16T07:37:18;15.40;98.30
40374;DHT22;26079;45.958;12.492;2022-10-16T07:47:02;15.60;98.80
40374;DHT22;26079;45.958;12.492;2022-10-16T07:51:54;15.80;98.60
40374;DHT22;26079;45.958;12.492;2022-10-16T07:59:12;16.20;97.90
40374;DHT22;26079;45.958;12.492;2022-10-16T08:04:03;16.50;96.20
40374;DHT22;26079;45.958;12.492;2022-10-16T08:08:56;16.60;97.00
40374;DHT22;26079;45.958;12.492;2022-10-16T08:13:48;16.80;94.50
40374;DHT22;26079;45.958;12.492;2022-10-16T08:18:41;17.00;93.90
40374;DHT22;26079;45.958;12.492;2022-10-16T08:21:08;17.10;94.10
40374;DHT22;26079;45.958;12.492;2022-10-16T08:26:05;17.30;93.00
40374;DHT22;26079;45.958;12.492;2022-10-16T08:28:31;17.40;93.70
40374;DHT22;26079;45.958;12.492;2022-10-16T08:31:14;17.50;93.80
40374;DHT22;26079;45.958;12.492;2022-10-16T08:33:43;17.70;92.50
40374;DHT22;26079;45.958;12.492;2022-10-16T08:36:10;17.80;90.70
40374;DHT22;26079;45.958;12.492;2022-10-16T08:38:37;17.80;91.80
40374;DHT22;26079;45.958;12.492;2022-10-16T08:49:00;18.30;90.70
40374;DHT22;26079;45.958;12.492;2022-10-16T08:51:31;18.40;89.90
40374;DHT22;26079;45.958;12.492;2022-10-16T08:54:06;18.40;90.50
40374;DHT22;26079;45.958;12.492;2022-10-16T08:56:32;18.50;90.60
40374;DHT22;26079;45.958;12.492;2022-10-16T08:58:59;18.50;91.70
40374;DHT22;26079;45.958;12.492;2022-10-16T09:01:41;18.60;90.20
40374;DHT22;26079;45.958;12.492;2022-10-16T09:07:08;18.60;91.00
40374;DHT22;26079;45.958;12.492;2022-10-16T09:09:54;18.80;90.40
40374;DHT22;26079;45.958;12.492;2022-10-16T09:12:31;18.80;89.80
40374;DHT22;26079;45.958;12.492;2022-10-16T09:17:37;18.80;90.60
40374;DHT22;26079;45.958;12.492;2022-10-16T09:23:10;19.10;90.60
40374;DHT22;26079;45.958;12.492;2022-10-16T09:25:39;19.20;91.00
40374;DHT22;26079;45.958;12.492;2022-10-16T09:28:08;19.20;90.00
40374;DHT22;26079;45.958;12.492;2022-10-16T09:30:34;19.10;90.30
40374;DHT22;26079;45.958;12.492;2022-10-16T09:33:00;19.10;90.30
40374;DHT22;26079;45.958;12.492;2022-10-16T09:35:39;19.10;90.80
40374;DHT22;26079;45.958;12.492;2022-10-16T09:38:05;19.20;89.90
40374;DHT22;26079;45.958;12.492;2022-10-16T09:40:34;19.30;90.30
40374;DHT22;26079;45.958;12.492;2022-10-16T09:46:01;19.40;90.80
40374;DHT22;26079;45.958;12.492;2022-10-16T09:48:39;19.50;90.80
40374;DHT22;26079;45.958;12.492;2022-10-16T09:51:13;19.40;91.00
40374;DHT22;26079;45.958;12.492;2022-10-16T09:53:46;19.50;89.90
40374;DHT22;26079;45.958;12.492;2022-10-16T09:56:21;19.60;90.20
40374;DHT22;26079;45.958;12.492;2022-10-16T09:58:52;19.70;90.80
40374;DHT22;26079;45.958;12.492;2022-10-16T10:01:19;19.70;90.50
40374;DHT22;26079;45.958;12.492;2022-10-16T10:03:45;19.80;90.50
40374;DHT22;26079;45.958;12.492;2022-10-16T10:06:26;19.80;91.30
40374;DHT22;26079;45.958;12.492;2022-10-16T10:08:58;19.80;90.90
40374;DHT22;26079;45.958;12.492;2022-10-16T10:14:13;19.90;91.40
40374;DHT22;26079;45.958;12.492;2022-10-16T10:16:40;19.90;91.50
40374;DHT22;26079;45.958;12.492;2022-10-16T10:19:14;20.00;90.40
40374;DHT22;26079;45.958;12.492;2022-10-16T10:24:13;20.10;90.80
40374;DHT22;26079;45.958;12.492;2022-10-16T10:26:44;20.10;90.00
40374;DHT22;26079;45.958;12.492;2022-10-16T10:29:34;20.20;90.30
40374;DHT22;26079;45.958;12.492;2022-10-16T10:32:11;20.20;90.40
40374;DHT22;26079;45.958;12.492;2022-10-16T10:37:37;20.40;89.00
40374;DHT22;26079;45.958;12.492;2022-10-16T10:42:57;20.30;88.30
40374;DHT22;26079;45.958;12.492;2022-10-16T10:45:27;20.40;88.00
40374;DHT22;26079;45.958;12.492;2022-10-16T10:53:56;20.70;88.50
40374;DHT22;26079;45.958;12.492;2022-10-16T10:56:48;20.80;88.00
40374;DHT22;26079;45.958;12.492;2022-10-16T11:02:15;20.90;86.90
40374;DHT22;26079;45.958;12.492;2022-10-16T11:07:38;20.90;88.50
40374;DHT22;26079;45.958;12.492;2022-10-16T11:10:15;20.90;87.70
40374;DHT22;26079;45.958;12.492;2022-10-16T11:12:55;20.90;86.80
40374;DHT22;26079;45.958;12.492;2022-10-16T11:15:32;21.00;85.50
40374;DHT22;26079;45.958;12.492;2022-10-16T11:18:06;21.10;85.50
40374;DHT22;26079;45.958;12.492;2022-10-16T11:20:49;21.20;85.20
40374;DHT22;26079;45.958;12.492;2022-10-16T11:26:14;21.40;84.20
40374;DHT22;26079;45.958;12.492;2022-10-16T11:28:48;21.40;82.10
40374;DHT22;26079;45.958;12.492;2022-10-16T11:36:56;21.20;84.00
40374;DHT22;26079;45.958;12.492;2022-10-16T11:39:30;21.30;83.10
40374;DHT22;26079;45.958;12.492;2022-10-16T11:42:10;21.30;84.40
40374;DHT22;26079;45.958;12.492;2022-10-16T11:44:54;21.30;83.70
40374;DHT22;26079;45.958;12.492;2022-10-16T11:47:44;21.20;83.40
40374;DHT22;26079;45.958;12.492;2022-10-16T11:56:04;21.10;83.50
40374;DHT22;26079;45.958;12.492;2022-10-16T11:58:35;21.20;82.70
40374;DHT22;26079;45.958;12.492;2022-10-16T12:04:16;21.30;82.60
40374;DHT22;26079;45.958;12.492;2022-10-16T12:08:49;21.40;82.60
40374;DHT22;26079;45.958;12.492;2022-10-16T12:11:35;21.50;82.00
40374;DHT22;26079;45.958;12.492;2022-10-16T12:14:05;21.60;82.20
40374;DHT22;26079;45.958;12.492;2022-10-16T12:19:16;21.60;82.10
40374;DHT22;26079;45.958;12.492;2022-10-16T12:21:43;21.70;81.60
40374;DHT22;26079;45.958;12.492;2022-10-16T12:24:26;21.70;81.40
40374;DHT22;26079;45.958;12.492;2022-10-16T12:26:53;21.70;81.00
40374;DHT22;26079;45.958;12.492;2022-10-16T12:31:47;22.00;80.70
40374;DHT22;26079;45.958;12.492;2022-10-16T12:34:21;22.00;81.00
40374;DHT22;26079;45.958;12.492;2022-10-16T12:36:48;22.00;82.70
40374;DHT22;26079;45.958;12.492;2022-10-16T12:39:40;22.10;80.90
40374;DHT22;26079;45.958;12.492;2022-10-16T12:42:32;22.20;80.80
40374;DHT22;26079;45.958;12.492;2022-10-16T12:44:59;22.10;81.10
40374;DHT22;26079;45.958;12.492;2022-10-16T12:49:57;22.00;79.30
40374;DHT22;26079;45.958;12.492;2022-10-16T12:52:38;21.90;81.00
40374;DHT22;26079;45.958;12.492;2022-10-16T12:55:12;22.00;81.50
40374;DHT22;26079;45.958;12.492;2022-10-16T13:00:45;22.00;80.10
40374;DHT22;26079;45.958;12.492;2022-10-16T13:06:43;22.20;80.50
40374;DHT22;26079;45.958;12.492;2022-10-16T13:15:26;22.40;79.50
40374;DHT22;26079;45.958;12.492;2022-10-16T13:18:16;22.30;78.80
40374;DHT22;26079;45.958;12.492;2022-10-16T13:26:34;21.90;82.10
40374;DHT22;26079;45.958;12.492;2022-10-16T13:29:03;21.80;82.30
40374;DHT22;26079;45.958;12.492;2022-10-16T13:31:30;21.80;82.70
40374;DHT22;26079;45.958;12.492;2022-10-16T13:33:58;21.80;82.90
40374;DHT22;26079;45.958;12.492;2022-10-16T13:36:30;21.80;83.10
40374;DHT22;26079;45.958;12.492;2022-10-16T13:39:16;21.70;82.70
40374;DHT22;26079;45.958;12.492;2022-10-16T13:41:46;21.60;83.00
40374;DHT22;26079;45.958;12.492;2022-10-16T13:44:15;21.60;83.20
40374;DHT22;26079;45.958;12.492;2022-10-16T13:46:43;21.50;83.90
40374;DHT22;26079;45.958;12.492;2022-10-16T13:49:16;21.50;83.70
40374;DHT22;26079;45.958;12.492;2022-10-16T13:51:54;21.40;83.00
40374;DHT22;26079;45.958;12.492;2022-10-16T13:54:20;21.40;83.50
40374;DHT22;26079;45.958;12.492;2022-10-16T13:59:27;21.30;83.70
40374;DHT22;26079;45.958;12.492;2022-10-16T14:01:58;21.30;84.00
40374;DHT22;26079;45.958;12.492;2022-10-16T14:04:32;21.30;83.30
40374;DHT22;26079;45.958;12.492;2022-10-16T14:06:58;21.20;84.10
40374;DHT22;26079;45.958;12.492;2022-10-16T14:09:30;21.20;83.80
40374;DHT22;26079;45.958;12.492;2022-10-16T14:12:23;21.20;83.70
40374;DHT22;26079;45.958;12.492;2022-10-16T14:14:52;21.20;84.20
40374;DHT22;26079;45.958;12.492;2022-10-16T14:17:27;21.20;84.30
40374;DHT22;26079;45.958;12.492;2022-10-16T14:19:55;21.10;84.50
40374;DHT22;26079;45.958;12.492;2022-10-16T14:22:33;20.90;84.50
40374;DHT22;26079;45.958;12.492;2022-10-16T14:25:00;20.80;84.70
40374;DHT22;26079;45.958;12.492;2022-10-16T14:27:36;20.80;85.90
40374;DHT22;26079;45.958;12.492;2022-10-16T14:32:34;20.80;85.50
40374;DHT22;26079;45.958;12.492;2022-10-16T14:37:59;20.70;86.40
40374;DHT22;26079;45.958;12.492;2022-10-16T14:40:31;20.70;86.20
40374;DHT22;26079;45.958;12.492;2022-10-16T14:42:58;20.70;86.40
40374;DHT22;26079;45.958;12.492;2022-10-16T14:45:27;20.70;86.60
40374;DHT22;26079;45.958;12.492;2022-10-16T14:48:16;20.60;85.40
40374;DHT22;26079;45.958;12.492;2022-10-16T14:50:42;20.50;86.10
40374;DHT22;26079;45.958;12.492;2022-10-16T14:53:11;20.50;85.90
40374;DHT22;26079;45.958;12.492;2022-10-16T14:55:38;20.50;86.10
40374;DHT22;26079;45.958;12.492;2022-10-16T14:58:04;20.60;86.00
40374;DHT22;26079;45.958;12.492;2022-10-16T15:00:30;20.60;86.50
40374;DHT22;26079;45.958;12.492;2022-10-16T15:02:56;20.60;87.20
40374;DHT22;26079;45.958;12.492;2022-10-16T15:05:24;20.50;86.50
40374;DHT22;26079;45.958;12.492;2022-10-16T15:07:52;20.50;86.90
40374;DHT22;26079;45.958;12.492;2022-10-16T15:10:23;20.50;86.50
40374;DHT22;26079;45.958;12.492;2022-10-16T15:12:49;20.50;87.00
40374;DHT22;26079;45.958;12.492;2022-10-16T15:15:32;20.40;88.00
40374;DHT22;26079;45.958;12.492;2022-10-16T15:20:32;20.30;88.00
40374;DHT22;26079;45.958;12.492;2022-10-16T15:23:00;20.30;88.20
40374;DHT22;26079;45.958;12.492;2022-10-16T15:27:55;20.20;89.30
40374;DHT22;26079;45.958;12.492;2022-10-16T15:30:20;20.10;89.50
40374;DHT22;26079;45.958;12.492;2022-10-16T15:32:47;20.00;89.30
40374;DHT22;26079;45.958;12.492;2022-10-16T15:37:38;19.90;89.80
40374;DHT22;26079;45.958;12.492;2022-10-16T15:40:04;19.90;90.20
40374;DHT22;26079;45.958;12.492;2022-10-16T15:42:30;19.80;90.90
40374;DHT22;26079;45.958;12.492;2022-10-16T15:54:40;19.40;93.00
40374;DHT22;26079;45.958;12.492;2022-10-16T16:01:58;19.20;94.30
40374;DHT22;26079;45.958;12.492;2022-10-16T16:04:29;19.10;95.10
40374;DHT22;26079;45.958;12.492;2022-10-16T16:06:55;19.00;95.30
40374;DHT22;26079;45.958;12.492;2022-10-16T16:11:47;18.80;96.30
40374;DHT22;26079;45.958;12.492;2022-10-16T16:14:13;18.70;96.50
40374;DHT22;26079;45.958;12.492;2022-10-16T16:16:39;18.50;96.90
40374;DHT22;26079;45.958;12.492;2022-10-16T16:19:05;18.40;97.70
40374;DHT22;26079;45.958;12.492;2022-10-16T16:21:33;18.30;98.20
40374;DHT22;26079;45.958;12.492;2022-10-16T16:23:59;18.20;97.90
40374;DHT22;26079;45.958;12.492;2022-10-16T16:26:27;18.20;98.80
40374;DHT22;26079;45.958;12.492;2022-10-16T16:28:55;18.10;99.20
40374;DHT22;26079;45.958;12.492;2022-10-16T16:31:27;18.00;99.40
40374;DHT22;26079;45.958;12.492;2022-10-16T16:34:12;18.00;99.60
40374;DHT22;26079;45.958;12.492;2022-10-16T16:36:38;17.90;99.90
40374;DHT22;26079;45.958;12.492;2022-10-16T16:39:06;17.80;99.90
40374;DHT22;26079;45.958;12.492;2022-10-16T16:41:33;17.80;99.90
40374;DHT22;26079;45.958;12.492;2022-10-16T16:44:04;17.70;99.90
40374;DHT22;26079;45.958;12.492;2022-10-16T16:46:31;17.70;99.90
40374;DHT22;26079;45.958;12.492;2022-10-16T16:48:58;17.70;99.90
40374;DHT22;26079;45.958;12.492;2022-10-16T16:51:24;17.60;99.90
40374;DHT22;26079;45.958;12.492;2022-10-16T16:53:52;17.60;99.90
40374;DHT22;26079;45.958;12.492;2022-10-16T16:56:19;17.50;99.90
40374;DHT22;26079;45.958;12.492;2022-10-16T16:58:46;17.40;99.90
40374;DHT22;26079;45.958;12.492;2022-10-16T17:01:12;17.40;99.90
40374;DHT22;26079;45.958;12.492;2022-10-16T17:03:37;17.30;99.90
40374;DHT22;26079;45.958;12.492;2022-10-16T17:06:06;17.30;99.90
40374;DHT22;26079;45.958;12.492;2022-10-16T17:08:33;17.30;99.90
40374;DHT22;26079;45.958;12.492;2022-10-16T17:10:59;17.30;99.90
40374;DHT22;26079;45.958;12.492;2022-10-16T17:13:27;17.30;99.90
40374;DHT22;26079;45.958;12.492;2022-10-16T17:15:53;17.30;99.90
40374;DHT22;26079;45.958;12.492;2022-10-16T17:18:22;17.20;99.90
40374;DHT22;26079;45.958;12.492;2022-10-16T17:20:48;17.20;99.90
40374;DHT22;26079;45.958;12.492;2022-10-16T17:23:15;17.20;99.90
40374;DHT22;26079;45.958;12.492;2022-10-16T17:25:41;17.10;99.90
40374;DHT22;26079;45.958;12.492;2022-10-16T17:28:09;17.10;99.90
40374;DHT22;26079;45.958;12.492;2022-10-16T17:30:44;17.10;99.90
40374;DHT22;26079;45.958;12.492;2022-10-16T17:33:11;17.10;99.90
40374;DHT22;26079;45.958;12.492;2022-10-16T17:35:42;17.00;99.90
40374;DHT22;26079;45.958;12.492;2022-10-16T17:38:12;17.00;99.90
40374;DHT22;26079;45.958;12.492;2022-10-16T17:40:42;17.00;99.90
40374;DHT22;26079;45.958;12.492;2022-10-16T17:43:08;16.90;99.90
40374;DHT22;26079;45.958;12.492;2022-10-16T17:45:37;16.80;99.90
40374;DHT22;26079;45.958;12.492;2022-10-16T17:48:09;16.80;99.90
40374;DHT22;26079;45.958;12.492;2022-10-16T17:50:39;16.70;99.90
40374;DHT22;26079;45.958;12.492;2022-10-16T17:53:05;16.70;99.90
40374;DHT22;26079;45.958;12.492;2022-10-16T17:55:37;16.60;99.90
40374;DHT22;26079;45.958;12.492;2022-10-16T17:58:03;16.60;99.90
40374;DHT22;26079;45.958;12.492;2022-10-16T18:00:32;16.50;99.90
40374;DHT22;26079;45.958;12.492;2022-10-16T18:03:01;16.50;99.90
40374;DHT22;26079;45.958;12.492;2022-10-16T18:07:56;16.40;99.90
40374;DHT22;26079;45.958;12.492;2022-10-16T18:10:22;16.40;99.90
40374;DHT22;26079;45.958;12.492;2022-10-16T18:12:48;16.40;99.90
40374;DHT22;26079;45.958;12.492;2022-10-16T18:17:40;16.40;99.90
40374;DHT22;26079;45.958;12.492;2022-10-16T18:25:29;16.30;99.90
40374;DHT22;26079;45.958;12.492;2022-10-16T18:27:57;16.30;99.90
40374;DHT22;26079;45.958;12.492;2022-10-16T18:30:29;16.30;99.90
40374;DHT22;26079;45.958;12.492;2022-10-16T18:32:57;16.30;99.90
40374;DHT22;26079;45.958;12.492;2022-10-16T18:35:23;16.30;99.90
40374;DHT22;26079;45.958;12.492;2022-10-16T18:37:51;16.30;99.90
40374;DHT22;26079;45.958;12.492;2022-10-16T18:45:21;16.30;99.90
40374;DHT22;26079;45.958;12.492;2022-10-16T18:50:13;16.20;99.90
40374;DHT22;26079;45.958;12.492;2022-10-16T18:52:46;16.20;99.90
40374;DHT22;26079;45.958;12.492;2022-10-16T18:55:13;16.20;99.90
40374;DHT22;26079;45.958;12.492;2022-10-16T18:57:42;16.20;99.90
40374;DHT22;26079;45.958;12.492;2022-10-16T19:00:20;16.10;99.90
40374;DHT22;26079;45.958;12.492;2022-10-16T19:02:48;16.10;99.90
40374;DHT22;26079;45.958;12.492;2022-10-16T19:05:24;16.00;99.90
40374;DHT22;26079;45.958;12.492;2022-10-16T19:10:17;15.90;99.90
40374;DHT22;26079;45.958;12.492;2022-10-16T19:12:48;15.90;99.90
40374;DHT22;26079;45.958;12.492;2022-10-16T19:15:20;15.80;99.90
40374;DHT22;26079;45.958;12.492;2022-10-16T19:17:51;15.80;99.90
40374;DHT22;26079;45.958;12.492;2022-10-16T19:20:17;15.80;99.90
40374;DHT22;26079;45.958;12.492;2022-10-16T19:25:23;15.70;99.90
40374;DHT22;26079;45.958;12.492;2022-10-16T19:27:50;15.60;99.90
40374;DHT22;26079;45.958;12.492;2022-10-16T19:30:17;15.60;99.90
40374;DHT22;26079;45.958;12.492;2022-10-16T19:32:43;15.60;99.90
40374;DHT22;26079;45.958;12.492;2022-10-16T19:35:11;15.60;99.90
40374;DHT22;26079;45.958;12.492;2022-10-16T19:40:03;15.60;99.90
40374;DHT22;26079;45.958;12.492;2022-10-16T19:42:29;15.60;99.90
40374;DHT22;26079;45.958;12.492;2022-10-16T19:44:54;15.60;99.90
40374;DHT22;26079;45.958;12.492;2022-10-16T19:47:20;15.50;99.90
40374;DHT22;26079;45.958;12.492;2022-10-16T19:52:14;15.50;99.90
40374;DHT22;26079;45.958;12.492;2022-10-16T19:57:07;15.50;99.90
40374;DHT22;26079;45.958;12.492;2022-10-16T19:59:33;15.50;99.90
40374;DHT22;26079;45.958;12.492;2022-10-16T20:04:25;15.40;99.90
40374;DHT22;26079;45.958;12.492;2022-10-16T20:09:17;15.30;99.90
40374;DHT22;26079;45.958;12.492;2022-10-16T20:14:09;15.10;99.90
40374;DHT22;26079;45.958;12.492;2022-10-16T20:16:35;15.10;99.90
40374;DHT22;26079;45.958;12.492;2022-10-16T20:21:30;15.00;99.90
40374;DHT22;26079;45.958;12.492;2022-10-16T20:23:59;15.00;99.90
40374;DHT22;26079;45.958;12.492;2022-10-16T20:26:24;15.00;99.90
40374;DHT22;26079;45.958;12.492;2022-10-16T20:28:51;15.00;99.90
40374;DHT22;26079;45.958;12.492;2022-10-16T20:31:23;15.00;99.90
40374;DHT22;26079;45.958;12.492;2022-10-16T20:33:50;15.00;99.90
40374;DHT22;26079;45.958;12.492;2022-10-16T20:36:18;14.90;99.90
40374;DHT22;26079;45.958;12.492;2022-10-16T20:38:44;14.90;99.90